Airfield :
LOGIN :

Register | Disclaimer

   EN    FR    IT 

 










Legend :    VFR   Marginal VFR   IFR   Intensive IFR   Very Intensive IFR
Visi :
Ceiling :
>= 8 km
>= 3000ft
5 to 8 km
1000 to 3000 ft
1500m to 5 km
500 to 1000 ft
800 to 1500m
200 to 500 ft
< 800m
< 200 ft
Symbols :   Thunderstorms  Fog  Heavy snow  Heavy precipitations  Wind > 20 kt
SIGMETs :     Misc.  Thunderstorms  Icing  Turbulence  Mountain Waves  Volcanic Ashes






- Airport Elevation : 22 ft
- IATA code : LDY


EGAE - Londonderry Eglington

CURRENT METAR :
  • 181820Z VRB02KT 9999 FEW018 SCT027 09/08 Q0995

EXPIRED METARs :
  • 181750Z VRB02KT 9999 SCT023 10/08 Q0995
  • 181720Z 12004KT 9999 FEW021 SCT035 11/09 Q0994
  • 181650Z 10007KT 9999 VCSH SCT020 SCT043 11/09 Q0994
  • 181620Z 05007KT 9999 FEW019 SCT045 12/10 Q0994
  • 181550Z 05009KT 9999 FEW020 SCT043 12/09 Q0994

TAF TAF EGAE
Valid from the 18 at 18:00 until the 18 at 21:00 UTC


181654Z 1818/1821 05008KT 9999 FEW020 SCT045
PROB40
TEMPO 1818/1821 6000 SHRA



MET'MAP, your aeronautical weather chart ! - Copyright ORBIFLY December 2007 - Disclaimer

ORBIFLY MET'MAP TEAM :

Programming & Development : Alexandra Zaïnal
Concept & Development : Baudouin d'Aumeries
Co-Development & Prog : Marc-Olivier Méhu
Technical & hardware support : Manuel Goepfert

Contact : metmap@orbifly.com




SOURCES & CREDITS :

   NOAA